Time;durP1;ratioP1;P1;durP2;ratioP2;P2;SDS_P1;SDS_P2;PMS_P1;PMS_P2;Temp;Humidity;BMP_temperature;BMP_pressure;BME280_temperature;BME280_humidity;BME280_pressure;Samples;Min_cycle;Max_cycle;Signal;HPM_P1;HPM_P2
2022/05/19 00:02:08;;;;;;;29.77;16.25;;;;;;;17.05;96.93;101860.63;7376646;19;20041;-76
2022/05/19 00:04:38;;;;;;;26.35;17.27;;;;;;;17.03;97.42;101858.88;7376212;19;20015;-76
2022/05/19 00:07:09;;;;;;;26.35;16.27;;;;;;;17.03;97.58;101859.75;7380743;19;20507;-77
2022/05/19 00:09:39;;;;;;;22.13;14.57;;;;;;;16.99;97.48;101858.84;7382978;19;20043;-76
2022/05/19 00:12:12;;;;;;;31.85;17.23;;;;;;;17.06;97.38;101846.50;7379121;19;20011;-77
2022/05/19 00:14:42;;;;;;;27.65;16.20;;;;;;;17.03;97.68;101848.25;7379843;19;20011;-76
2022/05/19 00:17:15;;;;;;;28.98;16.83;;;;;;;16.99;98.27;101855.31;7377653;19;20286;-76
2022/05/19 00:19:45;;;;;;;27.67;16.97;;;;;;;17.01;98.32;101864.16;7377389;19;20319;-76
2022/05/19 00:22:15;;;;;;;25.25;15.57;;;;;;;17.00;98.17;101851.78;7379356;19;20479;-76
2022/05/19 00:24:46;;;;;;;30.05;16.35;;;;;;;17.04;98.04;101852.69;7376122;19;20420;-76
2022/05/19 00:27:16;;;;;;;28.20;16.92;;;;;;;17.01;98.54;101842.97;7379848;19;20014;-76
2022/05/19 00:29:46;;;;;;;25.85;16.58;;;;;;;17.01;98.94;101840.31;7379680;19;20057;-76
2022/05/19 00:32:19;;;;;;;29.80;17.20;;;;;;;17.00;99.26;101835.88;7376690;19;20039;-76
2022/05/19 00:34:49;;;;;;;26.33;17.15;;;;;;;16.98;98.58;101830.59;7379088;19;20464;-76
2022/05/19 00:37:20;;;;;;;28.30;18.17;;;;;;;16.97;98.99;101825.28;7378166;19;20007;-75
2022/05/19 00:39:51;;;;;;;25.95;17.85;;;;;;;16.99;99.68;101823.53;7377128;19;20002;-76
2022/05/19 00:45:07;;;;;;;26.35;18.33;;;;;;;17.00;99.82;101814.69;7377084;19;20035;-75
2022/05/19 00:47:48;;;;;;;28.05;19.02;;;;;;;16.97;99.93;101817.31;7380092;19;20021;-76
2022/05/19 00:50:28;;;;;;;34.70;19.85;;;;;;;16.97;100.00;101806.72;7375962;19;20011;-76
2022/05/19 00:53:04;;;;;;;31.88;18.90;;;;;;;16.93;100.00;101808.50;7374226;19;20439;-78
2022/05/19 00:55:40;;;;;;;31.80;20.02;;;;;;;16.96;100.00;101802.31;7381104;19;20592;-76
2022/05/19 00:58:14;;;;;;;33.13;19.40;;;;;;;16.96;100.00;101797.00;7379597;19;20043;-76
2022/05/19 01:00:45;;;;;;;29.08;19.02;;;;;;;16.96;100.00;101799.66;7380851;19;20029;-76
2022/05/19 01:03:20;;;;;;;29.65;18.75;;;;;;;16.96;100.00;101797.00;7379259;19;20061;-76
2022/05/19 01:05:54;;;;;;;30.10;20.00;;;;;;;16.94;100.00;101793.47;7379953;19;20294;-76
2022/05/19 01:08:34;;;;;;;34.85;20.73;;;;;;;16.92;100.00;101782.00;7375526;19;20017;-75
2022/05/19 01:11:06;;;;;;;29.60;19.70;;;;;;;16.95;100.00;101789.94;7378216;19;20243;-76
2022/05/19 01:13:37;;;;;;;32.22;21.00;;;;;;;16.94;100.00;101786.41;7379127;19;20019;-76
2022/05/19 01:16:09;;;;;;;35.90;20.33;;;;;;;16.93;100.00;101778.47;7375629;19;20010;-76
2022/05/19 01:18:44;;;;;;;33.07;21.20;;;;;;;16.93;100.00;101771.38;7377166;19;20093;-76
2022/05/19 01:21:17;;;;;;;29.83;19.05;;;;;;;16.94;100.00;101764.31;7376369;19;20014;-75
2022/05/19 01:24:02;;;;;;;31.98;19.00;;;;;;;16.96;100.00;101768.75;7371299;19;20820;-76
2022/05/19 01:26:54;;;;;;;30.75;19.83;;;;;;;16.94;100.00;101767.84;7375281;19;20006;-75
2022/05/19 01:29:29;;;;;;;32.80;19.90;;;;;;;16.94;100.00;101773.16;7378997;19;20459;-76
2022/05/19 01:32:02;;;;;;;31.00;20.10;;;;;;;16.97;100.00;101777.59;7377231;19;20010;-75
2022/05/19 01:34:35;;;;;;;29.83;20.27;;;;;;;16.97;100.00;101756.38;7376085;19;20015;-76
2022/05/19 01:37:08;;;;;;;29.58;19.42;;;;;;;16.96;100.00;101765.22;7374118;19;20010;-76
2022/05/19 01:39:38;;;;;;;37.58;21.60;;;;;;;16.97;100.00;101759.91;7376086;19;20026;-76
2022/05/19 01:42:24;;;;;;;35.17;20.65;;;;;;;16.99;100.00;101755.50;7372119;19;20006;-76
2022/05/19 01:45:02;;;;;;;33.45;21.95;;;;;;;17.03;100.00;101756.41;7374901;19;20674;-75
2022/05/19 01:47:44;;;;;;;37.17;22.15;;;;;;;17.07;100.00;101747.56;7375963;19;20014;-77
2022/05/19 01:50:32;;;;;;;33.83;21.13;;;;;;;17.11;100.00;101748.44;7372369;19;20847;-76
2022/05/19 01:53:10;;;;;;;34.80;22.33;;;;;;;17.14;100.00;101752.00;7368642;19;20021;-76
2022/05/19 01:55:49;;;;;;;33.60;21.48;;;;;;;17.18;100.00;101750.22;7375366;19;20562;-76
2022/05/19 01:58:26;;;;;;;36.33;21.30;;;;;;;17.25;100.00;101752.88;7374773;19;20006;-76
2022/05/19 02:01:03;;;;;;;35.22;22.35;;;;;;;17.26;100.00;101759.94;7376435;19;20413;-78
2022/05/19 02:03:43;;;;;;;37.45;24.38;;;;;;;17.32;100.00;101770.56;7375518;19;20014;-77
2022/05/19 02:06:19;;;;;;;40.92;24.25;;;;;;;17.40;100.00;101783.81;7375521;19;20531;-76
2022/05/19 02:08:53;;;;;;;38.58;25.58;;;;;;;17.44;100.00;101795.31;7378013;19;20014;-74
2022/05/19 02:11:25;;;;;;;;;;;;;;;17.40;100.00;101788.22;7376743;19;20039;-75
2022/05/19 02:14:00;;;;;;;40.72;25.08;;;;;;;17.36;100.00;101782.03;7373748;19;19914;-76
2022/05/19 02:16:33;;;;;;;47.97;28.33;;;;;;;17.39;100.00;101794.41;7376138;19;20082;-75
2022/05/19 02:19:03;;;;;;;44.47;27.08;;;;;;;17.36;100.00;101802.38;7374568;19;20078;-75
2022/05/19 02:21:34;;;;;;;45.55;28.75;;;;;;;17.32;100.00;101833.31;7374627;19;20018;-76
2022/05/19 02:24:04;;;;;;;47.95;29.35;;;;;;;17.28;100.00;101832.41;7372490;19;20014;-76
2022/05/19 02:26:36;;;;;;;46.70;31.05;;;;;;;17.21;100.00;101835.94;7375228;19;20002;-75
2022/05/19 02:29:19;;;;;;;50.67;31.60;;;;;;;17.25;100.00;101815.63;7375784;19;20490;-76
2022/05/19 02:31:49;;;;;;;53.22;30.48;;;;;;;17.34;100.00;101805.03;7373225;19;20021;-76
2022/05/19 02:34:20;;;;;;;56.00;31.73;;;;;;;17.35;100.00;101827.13;7375690;19;20371;-75
2022/05/19 02:36:50;;;;;;;50.55;31.05;;;;;;;17.35;100.00;101843.91;7374896;19;20011;-79
2022/05/19 02:39:20;;;;;;;48.72;30.45;;;;;;;17.39;100.00;101845.69;7373912;19;20018;-79
2022/05/19 02:41:50;;;;;;;51.92;32.55;;;;;;;17.38;100.00;101835.09;7375337;19;20036;-80
2022/05/19 02:44:22;;;;;;;47.88;31.08;;;;;;;17.44;100.00;101843.94;7367918;19;20013;-79
2022/05/19 02:46:52;;;;;;;49.30;32.03;;;;;;;17.45;100.00;101840.41;7374050;19;20039;-79
2022/05/19 02:49:25;;;;;;;44.22;28.70;;;;;;;17.50;100.00;101835.97;7377560;19;20006;-79
2022/05/19 02:51:55;;;;;;;55.00;32.10;;;;;;;17.51;100.00;101818.28;7374473;19;20126;-81
2022/05/19 02:54:25;;;;;;;49.72;30.60;;;;;;;17.52;100.00;101841.28;7371968;19;20039;-80
2022/05/19 02:56:55;;;;;;;51.10;32.28;;;;;;;17.42;100.00;101843.03;7373736;19;20031;-76
2022/05/19 02:59:28;;;;;;;45.15;29.42;;;;;;;17.45;100.00;101807.69;7374871;19;20010;-77
2022/05/19 03:01:57;;;;;;;44.95;26.75;;;;;;;17.61;100.00;101782.94;7373800;19;20006;-75
2022/05/19 03:04:27;;;;;;;35.42;21.38;;;;;;;17.53;100.00;101811.22;7376778;19;20006;-74
2022/05/19 03:06:57;;;;;;;29.38;20.23;;;;;;;17.53;100.00;101800.63;7379603;19;20007;-75
2022/05/19 03:09:27;;;;;;;26.38;15.10;;;;;;;17.51;100.00;101787.34;7380190;19;20011;-77
2022/05/19 03:11:57;;;;;;;22.35;14.05;;;;;;;17.51;100.00;101781.16;7384439;19;20041;-76
2022/05/19 03:14:32;;;;;;;23.35;14.07;;;;;;;17.49;100.00;101794.44;7384981;19;20053;-76
2022/05/19 03:17:02;;;;;;;22.27;13.00;;;;;;;17.42;100.00;101799.72;7381871;19;20483;-75
2022/05/19 03:19:32;;;;;;;17.33;10.40;;;;;;;17.44;100.00;101790.00;7382622;19;20235;-75
2022/05/19 03:22:02;;;;;;;15.60;9.63;;;;;;;17.48;100.00;101789.13;7382176;19;20014;-76
2022/05/19 03:24:32;;;;;;;19.05;9.30;;;;;;;17.43;100.00;101782.94;7382755;19;20069;-76
2022/05/19 03:27:02;;;;;;;14.82;8.70;;;;;;;17.42;100.00;101782.06;7380621;19;20014;-77
2022/05/19 03:29:36;;;;;;;13.13;8.27;;;;;;;17.43;100.00;101793.53;7384422;19;20003;-75
2022/05/19 03:32:07;;;;;;;14.02;7.97;;;;;;;17.50;100.00;101800.63;7380495;19;20006;-75
2022/05/19 03:34:37;;;;;;;14.02;7.25;;;;;;;17.41;100.00;101822.72;7379417;19;20021;-75
2022/05/19 03:37:08;;;;;;;11.88;7.25;;;;;;;17.39;100.00;101877.50;7378647;19;20006;-75
2022/05/19 03:39:39;;;;;;;12.45;7.40;;;;;;;17.38;100.00;101959.72;7381254;19;20040;-75
2022/05/19 03:42:11;;;;;;;16.25;8.32;;;;;;;17.36;100.00;101985.34;7381167;19;20018;-75
2022/05/19 03:44:43;;;;;;;16.40;9.65;;;;;;;17.33;100.00;101965.88;7380859;19;20089;-74
2022/05/19 03:47:13;;;;;;;21.63;13.57;;;;;;;17.37;100.00;101984.47;7378426;19;20023;-74
2022/05/19 03:49:43;;;;;;;23.05;15.32;;;;;;;17.40;100.00;101984.47;7380448;19;20017;-74
2022/05/19 03:52:14;;;;;;;26.48;16.85;;;;;;;17.38;100.00;101954.41;7375181;19;20721;-74
2022/05/19 03:54:44;;;;;;;23.27;15.77;;;;;;;17.32;100.00;101955.28;7381233;19;20044;-74
2022/05/19 03:57:13;;;;;;;28.02;16.52;;;;;;;17.26;100.00;101942.00;7376055;19;20011;-74
2022/05/19 03:59:46;;;;;;;23.63;15.23;;;;;;;17.26;100.00;101949.94;7381007;19;20387;-74
2022/05/19 04:02:16;;;;;;;25.88;16.00;;;;;;;17.27;100.00;101936.69;7378356;19;20009;-74
2022/05/19 04:05:03;;;;;;;25.88;16.23;;;;;;;17.26;100.00;101929.63;7383111;19;20092;-74
2022/05/19 04:07:33;;;;;;;23.85;16.58;;;;;;;17.26;100.00;101912.84;7380877;19;20006;-74
2022/05/19 04:10:05;;;;;;;21.70;14.50;;;;;;;17.25;100.00;101911.06;7382715;19;20561;-74
2022/05/19 04:12:35;;;;;;;23.33;15.02;;;;;;;17.23;100.00;101902.22;7378970;19;20014;-74
2022/05/19 04:15:12;;;;;;;23.92;15.00;;;;;;;17.20;100.00;101902.22;7378794;19;20208;-75
2022/05/19 04:17:42;;;;;;;22.67;14.82;;;;;;;17.18;100.00;101915.47;7381378;19;20477;-75
2022/05/19 04:20:13;;;;;;;20.95;14.10;;;;;;;17.17;100.00;101924.28;7380743;19;20010;-75
2022/05/19 04:22:43;;;;;;;26.23;16.15;;;;;;;17.13;100.00;101911.03;7378710;19;20357;-74
2022/05/19 04:25:14;;;;;;;23.40;15.73;;;;;;;17.15;100.00;101904.84;7381295;19;20436;-74
2022/05/19 04:27:44;;;;;;;22.38;14.57;;;;;;;17.15;100.00;101923.41;7380112;19;20039;-74
2022/05/19 04:30:16;;;;;;;25.08;16.85;;;;;;;17.15;100.00;101906.63;7377279;19;20479;-75
2022/05/19 04:32:46;;;;;;;26.77;15.73;;;;;;;17.18;100.00;101898.66;7381012;19;20010;-75
2022/05/19 04:35:18;;;;;;;25.75;16.27;;;;;;;17.18;100.00;101898.66;7378780;19;20007;-75
2022/05/19 04:37:48;;;;;;;28.08;16.55;;;;;;;17.12;100.00;101888.94;7379742;19;20021;-71
2022/05/19 04:40:21;;;;;;;26.95;18.20;;;;;;;17.10;100.00;101884.50;7378610;19;20022;-70
2022/05/19 04:42:50;;;;;;;25.88;17.33;;;;;;;17.10;100.00;101888.03;7378201;19;20500;-70
2022/05/19 04:45:23;;;;;;;25.50;17.88;;;;;;;17.09;100.00;101893.34;7375962;19;20010;-70
2022/05/19 04:47:53;;;;;;;21.35;16.55;;;;;;;17.09;100.00;101896.00;7376750;19;20018;-71
2022/05/19 04:50:23;;;;;;;27.05;17.70;;;;;;;17.07;100.00;101890.69;7378233;19;20027;-70
2022/05/19 04:52:52;;;;;;;23.92;17.80;;;;;;;17.08;100.00;101891.56;7374662;19;20014;-70
2022/05/19 04:55:22;;;;;;;28.38;18.70;;;;;;;17.07;100.00;101888.03;7378296;19;20018;-71
2022/05/19 04:57:52;;;;;;;28.58;19.88;;;;;;;17.08;100.00;101878.31;7379870;19;20479;-71
2022/05/19 05:00:25;;;;;;;29.02;19.52;;;;;;;17.08;100.00;101865.06;7380965;19;20138;-71
2022/05/19 05:02:55;;;;;;;26.07;18.47;;;;;;;17.07;100.00;101864.19;7381161;19;20055;-70
2022/05/19 05:05:25;;;;;;;29.55;19.90;;;;;;;17.06;100.00;101857.09;7374505;19;20011;-72
2022/05/19 05:07:55;;;;;;;29.00;19.13;;;;;;;17.06;100.00;101861.53;7372753;19;20425;-72
2022/05/19 05:10:25;;;;;;;26.08;18.92;;;;;;;17.07;100.00;101853.56;7377020;19;20044;-71
2022/05/19 05:12:54;;;;;;;27.45;19.38;;;;;;;17.10;100.00;101837.69;7372672;19;20497;-71
2022/05/19 05:15:27;;;;;;;28.73;20.23;;;;;;;17.16;100.00;101827.09;7376082;19;20017;-69
2022/05/19 05:17:57;;;;;;;30.43;22.20;;;;;;;17.20;100.00;101818.25;7375191;19;20021;-69
2022/05/19 05:20:27;;;;;;;32.45;22.17;;;;;;;17.21;100.00;101798.81;7375808;19;20061;-69
2022/05/19 05:22:57;;;;;;;31.30;22.00;;;;;;;17.26;100.00;101794.41;7360326;19;20010;-69
2022/05/19 05:25:29;;;;;;;30.10;21.77;;;;;;;17.30;100.00;101788.22;7375637;19;20010;-70
2022/05/19 05:28:00;;;;;;;28.40;20.58;;;;;;;17.33;100.00;101784.69;7376960;19;20011;-70
2022/05/19 05:30:32;;;;;;;29.05;20.92;;;;;;;17.34;100.00;101783.81;7372229;19;20015;-70
2022/05/19 05:33:08;;;;;;;30.40;22.90;;;;;;;17.39;100.00;101786.47;7378636;19;20427;-70
2022/05/19 05:35:39;;;;;;;27.45;20.25;;;;;;;17.37;100.00;101778.50;7382145;19;20014;-70
2022/05/19 05:38:09;;;;;;;28.83;21.55;;;;;;;17.40;100.00;101775.88;7381431;19;20057;-70
2022/05/19 05:40:39;;;;;;;30.63;22.33;;;;;;;17.39;100.00;101774.09;7377582;19;20483;-70
2022/05/19 05:43:12;;;;;;;28.60;19.88;;;;;;;17.42;100.00;101775.88;7376085;19;20511;-69
2022/05/19 05:45:45;;;;;;;27.73;21.50;;;;;;;17.42;100.00;101781.16;7370846;19;20094;-70
2022/05/19 05:48:15;;;;;;;30.52;21.10;;;;;;;17.43;100.00;101780.28;7373414;19;20023;-69
2022/05/19 05:50:45;;;;;;;29.13;21.48;;;;;;;17.44;100.00;101780.28;7372962;19;20054;-69
2022/05/19 05:53:15;;;;;;;31.17;21.83;;;;;;;17.43;100.00;101773.22;7366289;19;20044;-70
2022/05/19 05:55:45;;;;;;;28.25;19.75;;;;;;;17.46;100.00;101744.03;7375803;19;20531;-69
2022/05/19 05:58:15;;;;;;;24.58;19.80;;;;;;;17.49;100.00;101721.94;7373854;19;20014;-69
2022/05/19 06:00:48;;;;;;;26.08;19.13;;;;;;;17.47;100.00;101726.34;7373992;19;20010;-69
2022/05/19 06:03:17;;;;;;;25.30;19.52;;;;;;;17.49;100.00;101762.59;7373155;19;20031;-69
2022/05/19 06:05:48;;;;;;;28.35;21.15;;;;;;;17.46;100.00;101769.66;7374242;19;20018;-69
2022/05/19 06:08:18;;;;;;;25.25;19.38;;;;;;;17.57;100.00;101770.56;7379057;19;20006;-69
2022/05/19 06:10:48;;;;;;;25.88;19.58;;;;;;;17.64;100.00;101764.34;7376839;19;20626;-69
2022/05/19 06:13:18;;;;;;;28.38;21.55;;;;;;;17.75;100.00;101751.97;7377564;19;20014;-69
2022/05/19 06:15:50;;;;;;;30.27;23.00;;;;;;;17.83;100.00;101746.63;7372270;19;20002;-69
2022/05/19 06:18:21;;;;;;;31.60;21.58;;;;;;;17.93;100.00;101748.38;7373191;19;20015;-69
2022/05/19 06:20:51;;;;;;;30.27;22.00;;;;;;;17.96;100.00;101741.31;7372285;19;20006;-70
2022/05/19 06:23:21;;;;;;;26.50;19.55;;;;;;;18.01;100.00;101741.28;7372870;19;20026;-70
2022/05/19 06:25:51;;;;;;;34.35;21.45;;;;;;;18.06;100.00;101743.94;7374206;19;20550;-69
2022/05/19 06:28:21;;;;;;;29.05;21.55;;;;;;;18.05;100.00;101740.41;7372686;19;20263;-69
2022/05/19 06:30:54;;;;;;;26.70;20.38;;;;;;;18.13;100.00;101743.91;7373053;19;20482;-69
2022/05/19 06:33:24;;;;;;;29.15;22.35;;;;;;;18.15;100.00;101751.88;7374639;19;20021;-69
2022/05/19 06:35:54;;;;;;;26.30;19.88;;;;;;;18.21;100.00;101750.06;7372443;19;20102;-69
2022/05/19 06:38:24;;;;;;;27.92;20.95;;;;;;;18.27;100.00;101754.47;7372345;19;20051;-70
2022/05/19 06:42:00;;;;;;;23.60;18.73;;;;;;;18.34;100.00;101756.22;7374200;19;20035;-77
2022/05/19 06:43:46;;;;;;;29.10;20.23;;;;;;;18.47;100.00;101757.94;7376557;19;20014;-78
2022/05/19 06:46:19;;;;;;;26.30;22.40;;;;;;;18.58;100.00;101758.75;7375611;19;20479;-76
2022/05/19 06:48:49;;;;;;;27.35;20.85;;;;;;;18.75;100.00;101761.31;7379192;19;20034;-76
2022/05/19 06:51:19;;;;;;;26.50;19.58;;;;;;;18.84;100.00;101763.06;7373406;19;20019;-77
2022/05/19 06:53:52;;;;;;;25.05;18.23;;;;;;;18.96;100.00;101757.66;7369009;19;20017;-76
2022/05/19 06:56:22;;;;;;;22.80;18.00;;;;;;;19.06;100.00;101756.69;7374211;19;20018;-77
2022/05/19 06:58:52;;;;;;;26.52;19.95;;;;;;;19.15;100.00;101764.63;7373533;19;20511;-77
2022/05/19 07:01:25;;;;;;;24.17;17.70;;;;;;;19.30;100.00;101768.94;7371505;19;20011;-77
2022/05/19 07:03:55;;;;;;;20.27;16.45;;;;;;;19.44;100.00;101782.13;7374206;19;20510;-77
2022/05/19 07:06:25;;;;;;;25.40;18.23;;;;;;;19.59;100.00;101788.22;7369843;19;20010;-77
2022/05/19 07:08:55;;;;;;;23.60;17.65;;;;;;;19.82;100.00;101785.31;7371536;19;20054;-76
2022/05/19 07:11:27;;;;;;;22.27;17.35;;;;;;;19.83;100.00;101778.22;7370895;19;20666;-77
2022/05/19 07:14:01;;;;;;;24.10;17.35;;;;;;;19.78;100.00;101778.25;7373842;19;20369;-76
2022/05/19 07:16:34;;;;;;;23.55;16.70;;;;;;;19.77;100.00;101780.94;7372769;19;20082;-77
2022/05/19 07:21:49;;;;;;;21.07;15.40;;;;;;;19.66;100.00;101789.06;7374008;19;20015;-77
2022/05/19 07:24:22;;;;;;;22.88;15.98;;;;;;;19.64;100.00;101788.19;7372944;19;20011;-77
2022/05/19 07:26:54;;;;;;;20.35;15.43;;;;;;;19.61;100.00;101777.56;7372063;19;20040;-77
2022/05/19 07:29:25;;;;;;;19.95;15.02;;;;;;;19.67;100.00;101779.28;7375128;19;20354;-77
2022/05/19 07:32:00;;;;;;;19.92;14.77;;;;;;;19.68;100.00;101784.59;7373639;19;20010;-77
2022/05/19 07:34:33;;;;;;;19.35;13.00;;;;;;;19.72;100.00;101786.34;7371021;19;20034;-77
2022/05/19 07:37:03;;;;;;;18.17;12.57;;;;;;;19.73;100.00;101787.22;7373415;19;20669;-77
2022/05/19 07:39:33;;;;;;;19.27;12.50;;;;;;;19.70;100.00;101798.78;7372495;19;20527;-77
2022/05/19 07:42:03;;;;;;;19.90;13.02;;;;;;;19.68;100.00;101803.22;7372679;19;20313;-77
2022/05/19 07:44:33;;;;;;;15.77;12.07;;;;;;;19.76;100.00;101812.00;7373510;19;20022;-77
2022/05/19 07:47:06;;;;;;;17.65;12.40;;;;;;;19.74;100.00;101819.16;7373131;19;20019;-77
2022/05/19 07:49:37;;;;;;;18.50;12.93;;;;;;;19.91;100.00;101822.50;7372070;19;20042;-77
2022/05/19 07:52:07;;;;;;;18.48;13.52;;;;;;;20.15;100.00;101817.81;7369135;19;20363;-74
2022/05/19 07:54:37;;;;;;;17.05;12.90;;;;;;;20.23;100.00;101814.19;7380827;19;20010;-77
2022/05/19 07:57:09;;;;;;;17.75;13.48;;;;;;;20.23;100.00;101803.53;7383582;19;20014;-76
2022/05/19 07:59:39;;;;;;;17.58;12.43;;;;;;;20.46;100.00;101800.63;7375357;19;20057;-76
2022/05/19 08:02:12;;;;;;;16.77;13.80;;;;;;;20.61;100.00;101793.34;7381530;19;20056;-76
2022/05/19 08:04:43;;;;;;;17.05;12.38;;;;;;;20.74;100.00;101795.81;7380234;19;20036;-76
2022/05/19 08:07:12;;;;;;;18.92;13.90;;;;;;;20.88;100.00;101787.59;7382299;19;20019;-75
2022/05/19 08:17:58;;;;;;;17.75;12.85;;;;;;;21.59;98.57;101782.97;7380845;19;20010;-75
2022/05/19 08:20:28;;;;;;;17.73;13.20;;;;;;;21.86;96.83;101782.44;7381715;19;20018;-75
2022/05/19 08:23:02;;;;;;;19.05;12.75;;;;;;;21.94;97.35;101789.44;7378991;19;20029;-75
2022/05/19 08:25:31;;;;;;;18.55;13.63;;;;;;;22.19;95.63;101796.09;7380980;19;20532;-75
2022/05/19 08:28:01;;;;;;;18.42;13.40;;;;;;;22.08;95.38;101792.75;7378768;19;20010;-76
2022/05/19 08:30:31;;;;;;;16.20;11.45;;;;;;;22.16;94.19;101790.81;7378074;19;20007;-75
2022/05/19 08:33:06;;;;;;;15.35;11.68;;;;;;;22.58;91.86;101785.50;7379978;19;20024;-75
2022/05/19 08:35:36;;;;;;;17.58;12.30;;;;;;;22.85;91.27;101792.97;7380961;19;20006;-75
2022/05/19 08:38:07;;;;;;;14.60;11.55;;;;;;;22.66;90.28;101792.44;7376726;19;20043;-75
2022/05/19 08:40:43;;;;;;;14.73;10.35;;;;;;;22.82;88.71;101787.69;7378155;19;20010;-73
2022/05/19 08:43:16;;;;;;;14.32;10.40;;;;;;;22.56;88.26;101792.66;7378951;19;21042;-74
2022/05/19 08:45:51;;;;;;;14.13;10.80;;;;;;;22.66;85.28;101783.53;7378431;19;20010;-72
2022/05/19 08:48:26;;;;;;;12.15;9.23;;;;;;;22.68;86.71;101779.03;7381089;19;20007;-75
2022/05/19 08:50:58;;;;;;;13.25;10.63;;;;;;;22.42;83.03;101784.94;7381627;19;20030;-73
2022/05/19 08:53:32;;;;;;;12.45;9.90;;;;;;;22.31;84.75;101787.84;7377801;19;20010;-72
2022/05/19 08:56:07;;;;;;;12.35;9.48;;;;;;;22.78;85.37;101783.28;7381131;19;20046;-72
2022/05/19 08:58:51;;;;;;;13.63;10.27;;;;;;;23.09;84.50;101787.00;7380004;19;20010;-73
2022/05/19 09:01:26;;;;;;;13.73;9.80;;;;;;;23.41;83.46;101788.91;7381029;19;20046;-73
2022/05/19 09:04:13;;;;;;;14.60;10.30;;;;;;;23.57;81.73;101789.44;7381458;19;20025;-75
2022/05/19 09:09:53;;;;;;;15.57;9.98;;;;;;;23.51;81.24;101797.59;7380350;19;20410;-75
2022/05/19 09:12:25;;;;;;;12.35;8.73;;;;;;;23.66;79.34;101801.72;7384119;19;20019;-75
2022/05/19 09:14:55;;;;;;;12.65;8.73;;;;;;;23.68;78.24;101795.41;7382652;19;20014;-76
2022/05/19 09:17:31;;;;;;;10.85;7.53;;;;;;;23.54;77.88;101804.69;7381977;19;20483;-75
2022/05/19 09:20:09;;;;;;;13.48;8.52;;;;;;;23.63;78.10;101805.34;7381648;19;20010;-76
2022/05/19 09:22:40;;;;;;;12.13;8.02;;;;;;;23.61;76.82;101801.81;7381165;19;20023;-76
2022/05/19 09:25:13;;;;;;;11.88;7.05;;;;;;;23.95;77.63;101801.78;7382155;19;20006;-75
2022/05/19 09:27:44;;;;;;;;;;;;;;;24.02;73.57;101794.47;7378352;19;20018;-76
2022/05/19 09:30:18;;;;;;;12.82;6.88;;;;;;;24.30;73.81;101798.16;7379524;19;19923;-73
2022/05/19 09:32:56;;;;;;;9.18;6.38;;;;;;;25.06;71.46;101785.13;7378879;19;20123;-74
2022/05/19 09:35:33;;;;;;;8.52;5.35;;;;;;;25.29;67.05;101775.47;7380512;19;20006;-72
2022/05/19 09:38:13;;;;;;;8.93;4.97;;;;;;;25.27;66.24;101780.00;7373445;19;20017;-73
2022/05/19 09:40:47;;;;;;;9.32;5.65;;;;;;;25.36;67.29;101787.75;7376112;19;20011;-73
2022/05/19 09:43:21;;;;;;;9.75;5.00;;;;;;;25.52;65.17;101789.00;7379111;19;20015;-73
2022/05/19 09:45:54;;;;;;;8.07;4.40;;;;;;;25.82;61.02;101786.22;7378242;19;20017;-74
2022/05/19 09:48:28;;;;;;;8.25;4.80;;;;;;;26.07;61.37;101769.13;7376746;19;20018;-74
2022/05/19 09:51:06;;;;;;;7.97;4.00;;;;;;;25.77;58.83;101762.19;7378358;19;20282;-75
2022/05/19 09:53:41;;;;;;;8.25;3.80;;;;;;;26.19;60.25;101759.72;7370282;19;20480;-76
2022/05/19 09:56:13;;;;;;;9.02;5.20;;;;;;;25.92;60.24;101760.78;7378172;19;20126;-75
2022/05/19 09:58:48;;;;;;;10.80;5.17;;;;;;;25.54;61.70;101762.97;7376676;19;20479;-76
2022/05/19 10:01:21;;;;;;;10.50;5.22;;;;;;;26.07;61.19;101768.25;7378909;19;20271;-76
2022/05/19 10:03:58;;;;;;;7.78;4.40;;;;;;;25.84;60.56;101762.84;7379338;19;20035;-74
2022/05/19 10:06:41;;;;;;;9.00;4.43;;;;;;;25.88;61.83;101749.25;7373982;19;20010;-74
2022/05/19 10:09:15;;;;;;;9.73;4.38;;;;;;;25.61;61.18;101751.06;7370665;19;20010;-74
2022/05/19 10:11:52;;;;;;;8.98;5.03;;;;;;;25.58;61.71;101743.13;7370954;19;20419;-74
2022/05/19 10:14:28;;;;;;;8.23;5.38;;;;;;;25.98;60.93;101739.06;7375880;19;20009;-74
2022/05/19 10:17:09;;;;;;;10.93;5.20;;;;;;;25.99;60.26;101752.44;7377492;19;20011;-74
2022/05/19 10:19:48;;;;;;;9.48;4.88;;;;;;;26.24;61.11;101755.06;7378468;19;20015;-74
2022/05/19 10:22:55;;;;;;;11.02;5.50;;;;;;;26.34;61.04;101774.44;7376749;19;20316;-75
2022/05/19 10:25:51;;;;;;;10.25;6.20;;;;;;;25.90;61.84;101784.13;7377225;19;20015;-74
2022/05/19 10:31:22;;;;;;;10.52;5.88;;;;;;;25.52;61.81;101767.50;7373744;19;20006;-75
2022/05/19 10:34:35;;;;;;;15.02;7.93;;;;;;;25.02;62.25;101772.75;7374199;19;20038;-74
2022/05/19 10:37:13;;;;;;;13.00;7.38;;;;;;;24.98;63.57;101797.91;7373568;19;20032;-74
2022/05/19 10:40:03;;;;;;;13.23;8.07;;;;;;;24.66;64.25;101812.31;7371088;19;20018;-74
2022/05/19 10:42:43;;;;;;;12.38;8.30;;;;;;;24.33;65.80;101822.22;7373260;19;20010;-74
2022/05/19 10:45:27;;;;;;;15.48;8.07;;;;;;;24.25;66.06;101824.19;7375211;19;20015;-75
2022/05/19 10:48:27;;;;;;;16.50;9.77;;;;;;;23.91;70.31;101858.22;7372471;19;20022;-73
2022/05/19 10:51:02;;;;;;;19.45;10.95;;;;;;;22.89;84.31;101888.22;7371525;19;20006;-69
2022/05/19 10:53:57;;;;;;;20.25;12.45;;;;;;;21.86;89.57;101910.63;7365525;19;20003;-69
2022/05/19 10:56:58;;;;;;;18.45;10.68;;;;;;;20.43;94.30;101939.22;7375340;19;20499;-71
2022/05/19 10:59:44;;;;;;;13.70;8.75;;;;;;;20.43;96.20;101957.00;7377123;19;20077;-75
2022/05/19 11:02:30;;;;;;;18.08;12.20;;;;;;;20.28;99.40;101943.78;7372284;19;20357;-75
2022/05/19 11:05:21;;;;;;;18.58;11.88;;;;;;;20.39;100.00;101942.81;7372341;19;20759;-75
2022/05/19 11:08:02;;;;;;;23.13;15.57;;;;;;;20.12;100.00;101938.59;7373395;19;20010;-77
2022/05/19 11:10:38;;;;;;;25.55;16.83;;;;;;;20.03;100.00;101945.78;7373146;19;20014;-75
2022/05/19 11:13:26;;;;;;;23.08;15.80;;;;;;;20.14;100.00;101947.44;7372322;19;20479;-75
2022/05/19 11:16:06;;;;;;;23.13;16.70;;;;;;;20.05;100.00;101957.28;7372675;19;20060;-75
2022/05/19 11:18:42;;;;;;;26.45;18.50;;;;;;;20.11;100.00;101957.25;7372026;19;20015;-75
2022/05/19 11:21:18;;;;;;;24.38;18.48;;;;;;;19.82;100.00;101976.97;7373846;19;20003;-74
2022/05/19 11:23:52;;;;;;;22.80;15.80;;;;;;;19.80;100.00;101962.81;7372854;19;20014;-75
2022/05/19 11:26:27;;;;;;;23.38;17.05;;;;;;;19.49;100.00;101956.78;7384324;19;20014;-69
2022/05/19 11:29:10;;;;;;;24.95;17.23;;;;;;;19.59;100.00;101962.97;7380979;19;20026;-70
2022/05/19 11:31:48;;;;;;;22.30;15.87;;;;;;;19.56;100.00;101969.19;7382083;19;20129;-70
2022/05/19 11:34:24;;;;;;;22.95;16.80;;;;;;;19.50;100.00;101979.84;7378118;19;20006;-70
2022/05/19 11:37:03;;;;;;;17.60;13.15;;;;;;;19.22;100.00;101987.06;7380161;19;20017;-70
2022/05/19 11:39:39;;;;;;;17.02;10.98;;;;;;;19.23;100.00;101995.94;7381111;19;20007;-70
2022/05/19 11:42:23;;;;;;;16.45;9.63;;;;;;;18.88;100.00;101978.31;7377275;19;20017;-71
2022/05/19 11:44:57;;;;;;;13.27;9.00;;;;;;;18.59;100.00;101981.03;7383667;19;20155;-70
2022/05/19 11:55:48;;;;;;;16.17;9.93;;;;;;;18.63;100.00;101938.56;7378587;19;20019;-70
2022/05/19 11:58:23;;;;;;;15.55;10.52;;;;;;;18.52;100.00;101935.91;7379511;19;20006;-70
2022/05/19 12:01:00;;;;;;;15.40;9.07;;;;;;;18.58;100.00;101930.56;7377119;19;20052;-71
2022/05/19 12:03:40;;;;;;;13.10;10.60;;;;;;;18.55;100.00;101934.13;7381760;19;20039;-70
2022/05/19 12:06:21;;;;;;;13.63;9.73;;;;;;;18.38;100.00;101909.34;7382780;19;20011;-76